sensor_id;sensor_type;location;lat;lon;timestamp;pressure;altitude;pressure_sealevel;temperature;humidity
76044;BME280;64740;34.694;33.088;2023-12-29T00:01:49;1046.1;;;20;38.4
76044;BME280;64740;34.694;33.088;2023-12-29T00:06:41;1046.1;;;20;38.1
76044;BME280;64740;34.694;33.088;2023-12-29T00:11:39;1046.1;;;19.9;37.8
76044;BME280;64740;34.694;33.088;2023-12-29T00:16:59;1046;;;19.9;38.4
76044;BME280;64740;34.694;33.088;2023-12-29T00:22:19;1046;;;19.9;38.2
76044;BME280;64740;34.694;33.088;2023-12-29T00:26:55;1046;;;19.9;38.1
76044;BME280;64740;34.694;33.088;2023-12-29T00:31:51;1045.9;;;19.8;38.2
76044;BME280;64740;34.694;33.088;2023-12-29T00:36:51;1046;;;19.9;38.3
76044;BME280;64740;34.694;33.088;2023-12-29T00:41:39;1045.9;;;19.9;38.1
76044;BME280;64740;34.694;33.088;2023-12-29T00:47:05;1046;;;19.8;37.7
76044;BME280;64740;34.694;33.088;2023-12-29T00:51:52;1046;;;19.7;37.7
76044;BME280;64740;34.694;33.088;2023-12-29T00:57:17;1046;;;19.6;38.2
76044;BME280;64740;34.694;33.088;2023-12-29T01:01:53;1046;;;19.6;38.3
76044;BME280;64740;34.694;33.088;2023-12-29T01:07:09;1046;;;19.5;38.3
76044;BME280;64740;34.694;33.088;2023-12-29T01:11:39;1046;;;19.5;39
76044;BME280;64740;34.694;33.088;2023-12-29T01:16:47;1046;;;19.5;39
76044;BME280;64740;34.694;33.088;2023-12-29T01:22:01;1046;;;19.5;38.6
76044;BME280;64740;34.694;33.088;2023-12-29T01:27:23;1046.1;;;19.4;39
76044;BME280;64740;34.694;33.088;2023-12-29T01:32:21;1046.1;;;19.5;39.6
76044;BME280;64740;34.694;33.088;2023-12-29T01:37:09;1046.1;;;19.5;39.9
76044;BME280;64740;34.694;33.088;2023-12-29T01:42:21;1046.1;;;19.6;39.4
76044;BME280;64740;34.694;33.088;2023-12-29T01:46:39;1046;;;19.6;39.4
76044;BME280;64740;34.694;33.088;2023-12-29T01:52:00;1046.1;;;19.7;39.3
76044;BME280;64740;34.694;33.088;2023-12-29T01:57:10;1046.1;;;19.7;39.2
76044;BME280;64740;34.694;33.088;2023-12-29T02:02:05;1046;;;19.7;39.2
76044;BME280;64740;34.694;33.088;2023-12-29T02:07:05;1046;;;19.7;39.3
76044;BME280;64740;34.694;33.088;2023-12-29T02:12:13;1046;;;19.7;39.7
76044;BME280;64740;34.694;33.088;2023-12-29T02:17:22;1046;;;19.8;39.6
76044;BME280;64740;34.694;33.088;2023-12-29T02:21:39;1046;;;19.8;39.7
76044;BME280;64740;34.694;33.088;2023-12-29T02:27:01;1046;;;19.9;39.7
76044;BME280;64740;34.694;33.088;2023-12-29T02:31:59;1046;;;19.9;39.4
76044;BME280;64740;34.694;33.088;2023-12-29T02:37:21;1046;;;19.9;39.3
76044;BME280;64740;34.694;33.088;2023-12-29T02:42:05;1046;;;19.8;39.6
76044;BME280;64740;34.694;33.088;2023-12-29T02:46:41;1046;;;19.8;39.8
76044;BME280;64740;34.694;33.088;2023-12-29T02:51:59;1045.9;;;19.9;39.8
76044;BME280;64740;34.694;33.088;2023-12-29T02:56:45;1045.9;;;19.9;40
76044;BME280;64740;34.694;33.088;2023-12-29T03:02:23;1046;;;19.8;39.9
76044;BME280;64740;34.694;33.088;2023-12-29T03:06:53;1046;;;19.8;40.1
76044;BME280;64740;34.694;33.088;2023-12-29T03:11:47;1046;;;19.8;40.3
76044;BME280;64740;34.694;33.088;2023-12-29T03:17:10;1046;;;19.8;40.2
76044;BME280;64740;34.694;33.088;2023-12-29T03:22:21;1046;;;19.7;40.1
76044;BME280;64740;34.694;33.088;2023-12-29T03:27:04;1046;;;19.7;40.3
76044;BME280;64740;34.694;33.088;2023-12-29T03:31:59;1046.1;;;19.7;40.3
76044;BME280;64740;34.694;33.088;2023-12-29T03:36:47;1046.1;;;19.6;40.4
76044;BME280;64740;34.694;33.088;2023-12-29T03:42:21;1046.1;;;19.6;40.7
76044;BME280;64740;34.694;33.088;2023-12-29T03:46:47;1046.1;;;19.7;40.9
76044;BME280;64740;34.694;33.088;2023-12-29T03:51:59;1046.1;;;19.7;40.7
76044;BME280;64740;34.694;33.088;2023-12-29T03:57:23;1046.2;;;19.7;40.7
76044;BME280;64740;34.694;33.088;2023-12-29T04:01:39;1046.2;;;19.7;40.9
76044;BME280;64740;34.694;33.088;2023-12-29T04:06:58;1046.2;;;19.7;40.9
76044;BME280;64740;34.694;33.088;2023-12-29T04:12:21;1046.2;;;19.7;40.9
76044;BME280;64740;34.694;33.088;2023-12-29T04:16:56;1046.3;;;19.6;41
76044;BME280;64740;34.694;33.088;2023-12-29T04:21:39;1046.3;;;19.6;41
76044;BME280;64740;34.694;33.088;2023-12-29T04:26:39;1046.4;;;19.6;41.1
76044;BME280;64740;34.694;33.088;2023-12-29T04:32:02;1046.5;;;19.6;41.3
76044;BME280;64740;34.694;33.088;2023-12-29T04:36:45;1046.5;;;19.6;41.1
76044;BME280;64740;34.694;33.088;2023-12-29T04:42:11;1046.5;;;19.6;41.1
76044;BME280;64740;34.694;33.088;2023-12-29T04:47:21;1046.5;;;19.6;41.2
76044;BME280;64740;34.694;33.088;2023-12-29T04:52:09;1046.5;;;19.6;41.3
76044;BME280;64740;34.694;33.088;2023-12-29T04:56:55;1046.5;;;19.6;41.3
76044;BME280;64740;34.694;33.088;2023-12-29T05:01:39;1046.6;;;19.5;41.4
76044;BME280;64740;34.694;33.088;2023-12-29T05:06:45;1046.6;;;19.5;41.5
76044;BME280;64740;34.694;33.088;2023-12-29T05:11:39;1046.6;;;19.5;41.6
76044;BME280;64740;34.694;33.088;2023-12-29T05:17:13;1046.6;;;19.6;41.8
76044;BME280;64740;34.694;33.088;2023-12-29T05:21:53;1046.6;;;19.7;41.7
76044;BME280;64740;34.694;33.088;2023-12-29T05:27:07;1046.6;;;19.7;41.6
76044;BME280;64740;34.694;33.088;2023-12-29T05:32:09;1046.7;;;19.7;41.5
76044;BME280;64740;34.694;33.088;2023-12-29T05:37:21;1046.7;;;19.7;41.5
76044;BME280;64740;34.694;33.088;2023-12-29T05:41:59;1046.7;;;19.7;41.6
76044;BME280;64740;34.694;33.088;2023-12-29T05:47:11;1046.8;;;19.8;41.6
76044;BME280;64740;34.694;33.088;2023-12-29T05:52:22;1046.8;;;19.9;41.6
76044;BME280;64740;34.694;33.088;2023-12-29T05:57:23;1046.9;;;19.9;41.5
76044;BME280;64740;34.694;33.088;2023-12-29T06:02:21;1046.9;;;20;41.4
76044;BME280;64740;34.694;33.088;2023-12-29T06:07:23;1047;;;20.1;41.4
76044;BME280;64740;34.694;33.088;2023-12-29T06:11:45;1047;;;20.2;41.3
76044;BME280;64740;34.694;33.088;2023-12-29T06:16:49;1047;;;20.3;41.2
76044;BME280;64740;34.694;33.088;2023-12-29T06:22:14;1047.1;;;20.4;41
76044;BME280;64740;34.694;33.088;2023-12-29T06:27:22;1047.1;;;20.5;41.1
76044;BME280;64740;34.694;33.088;2023-12-29T06:31:47;1047.1;;;20.6;41
76044;BME280;64740;34.694;33.088;2023-12-29T06:37:12;1047.1;;;20.8;40.8
76044;BME280;64740;34.694;33.088;2023-12-29T06:42:21;1047.1;;;20.9;40.6
76044;BME280;64740;34.694;33.088;2023-12-29T06:46:59;1047.2;;;21;40.6
76044;BME280;64740;34.694;33.088;2023-12-29T06:51:39;1047.2;;;21.1;40.5
76044;BME280;64740;34.694;33.088;2023-12-29T06:56:45;1047.2;;;21.2;40.4
76044;BME280;64740;34.694;33.088;2023-12-29T07:02:22;1047.2;;;21.3;40.1
76044;BME280;64740;34.694;33.088;2023-12-29T07:06:48;1047.2;;;21.4;39.9
76044;BME280;64740;34.694;33.088;2023-12-29T07:12:13;1047.3;;;21.6;40
76044;BME280;64740;34.694;33.088;2023-12-29T07:17:02;1047.4;;;21.7;39.9
76044;BME280;64740;34.694;33.088;2023-12-29T07:21:48;1047.4;;;21.9;39.9
76044;BME280;64740;34.694;33.088;2023-12-29T07:26:42;1047.4;;;22;39.5
76044;BME280;64740;34.694;33.088;2023-12-29T07:32:12;1047.4;;;22.2;39.4
76044;BME280;64740;34.694;33.088;2023-12-29T07:37:02;1047.4;;;22.3;39.2
76044;BME280;64740;34.694;33.088;2023-12-29T07:41:42;1047.4;;;22.5;39.5
76044;BME280;64740;34.694;33.088;2023-12-29T07:47:20;1047.4;;;22.7;38.6
76044;BME280;64740;34.694;33.088;2023-12-29T07:51:46;1047.4;;;22.9;38.6
76044;BME280;64740;34.694;33.088;2023-12-29T07:56:52;1047.4;;;23;38.3
76044;BME280;64740;34.694;33.088;2023-12-29T08:02:10;1047.3;;;23.2;38.1
76044;BME280;64740;34.694;33.088;2023-12-29T08:06:52;1047.3;;;23.4;38.4
76044;BME280;64740;34.694;33.088;2023-12-29T08:12:00;1047.2;;;23.5;37.9
76044;BME280;64740;34.694;33.088;2023-12-29T08:16:40;1047.1;;;23.6;37.7
76044;BME280;64740;34.694;33.088;2023-12-29T08:22:22;1047.1;;;23.7;37.3
76044;BME280;64740;34.694;33.088;2023-12-29T08:26:44;1047;;;23.8;37.3
76044;BME280;64740;34.694;33.088;2023-12-29T08:32:22;1047;;;23.9;36.7
76044;BME280;64740;34.694;33.088;2023-12-29T08:37:20;1047;;;24;36.7
76044;BME280;64740;34.694;33.088;2023-12-29T08:42:22;1046.9;;;24;37
76044;BME280;64740;34.694;33.088;2023-12-29T08:47:08;1046.8;;;24.1;37.1
76044;BME280;64740;34.694;33.088;2023-12-29T08:51:40;1046.8;;;24.1;37.5
76044;BME280;64740;34.694;33.088;2023-12-29T08:57:08;1046.8;;;24.2;38.2
76044;BME280;64740;34.694;33.088;2023-12-29T09:01:52;1046.8;;;24.2;39.2
76044;BME280;64740;34.694;33.088;2023-12-29T09:06:52;1046.7;;;24.2;40
76044;BME280;64740;34.694;33.088;2023-12-29T09:12:22;1046.6;;;24.3;40.9
76044;BME280;64740;34.694;33.088;2023-12-29T09:17:10;1046.6;;;24.4;43
76044;BME280;64740;34.694;33.088;2023-12-29T09:21:58;1046.5;;;24.6;43.1
76044;BME280;64740;34.694;33.088;2023-12-29T09:26:40;1046.4;;;24.7;43.1
76044;BME280;64740;34.694;33.088;2023-12-29T09:32:08;1046.3;;;24.8;43.4
76044;BME280;64740;34.694;33.088;2023-12-29T09:36:46;1046.3;;;24.9;43.6
76044;BME280;64740;34.694;33.088;2023-12-29T09:41:41;1046.2;;;25;43.3
76044;BME280;64740;34.694;33.088;2023-12-29T09:46:53;1046.2;;;24.9;43.5
76044;BME280;64740;34.694;33.088;2023-12-29T09:52:10;1046.2;;;24.9;43.1
76044;BME280;64740;34.694;33.088;2023-12-29T09:57:10;1046.1;;;24.8;43.6
76044;BME280;64740;34.694;33.088;2023-12-29T10:02:22;1046;;;24.9;43.7
76044;BME280;64740;34.694;33.088;2023-12-29T10:06:52;1046;;;24.9;43.9
76044;BME280;64740;34.694;33.088;2023-12-29T10:11:46;1045.9;;;24.9;44.1
76044;BME280;64740;34.694;33.088;2023-12-29T10:17:25;1045.8;;;25;44.5
76044;BME280;64740;34.694;33.088;2023-12-29T10:22:21;1045.8;;;25.1;44.4
76044;BME280;64740;34.694;33.088;2023-12-29T10:27:22;1045.8;;;25.2;44.3
76044;BME280;64740;34.694;33.088;2023-12-29T10:32:22;1045.7;;;25.3;44.4
76044;BME280;64740;34.694;33.088;2023-12-29T10:36:46;1045.7;;;25.4;44.1
76044;BME280;64740;34.694;33.088;2023-12-29T10:41:40;1045.6;;;25.6;43.9
76044;BME280;64740;34.694;33.088;2023-12-29T10:47:12;1045.6;;;25.8;43.9
76044;BME280;64740;34.694;33.088;2023-12-29T10:52:13;1045.5;;;25.9;43.5
76044;BME280;64740;34.694;33.088;2023-12-29T10:57:03;1045.5;;;26;43.3
76044;BME280;64740;34.694;33.088;2023-12-29T11:02:08;1045.5;;;26.1;43.1
76044;BME280;64740;34.694;33.088;2023-12-29T11:07:29;1045.4;;;26.2;42.9
76044;BME280;64740;34.694;33.088;2023-12-29T11:11:38;1045.4;;;26.3;42.5
76044;BME280;64740;34.694;33.088;2023-12-29T11:16:56;1045.4;;;26.4;42.2
76044;BME280;64740;34.694;33.088;2023-12-29T11:22:20;1045.3;;;26.6;41.8
76044;BME280;64740;34.694;33.088;2023-12-29T11:27:20;1045.3;;;26.8;41.3
76044;BME280;64740;34.694;33.088;2023-12-29T11:32:04;1045.3;;;26.9;40.8
76044;BME280;64740;34.694;33.088;2023-12-29T11:36:40;1045.3;;;26.9;40.2
76044;BME280;64740;34.694;33.088;2023-12-29T11:42:12;1045.3;;;27;39.6
76044;BME280;64740;34.694;33.088;2023-12-29T11:46:52;1045.2;;;27.1;39.8
76044;BME280;64740;34.694;33.088;2023-12-29T11:52:32;1045.2;;;27.3;39.8
76044;BME280;64740;34.694;33.088;2023-12-29T11:57:10;1045.1;;;27.6;39.4
76044;BME280;64740;34.694;33.088;2023-12-29T12:02:06;1045.1;;;27.8;38.8
76044;BME280;64740;34.694;33.088;2023-12-29T12:07:04;1045.2;;;28.3;38.1
76044;BME280;64740;34.694;33.088;2023-12-29T12:12:00;1045.2;;;28.6;37.7
76044;BME280;64740;34.694;33.088;2023-12-29T12:16:53;1045.2;;;28.8;37
76044;BME280;64740;34.694;33.088;2023-12-29T12:21:45;1045.1;;;29.1;36.6
76044;BME280;64740;34.694;33.088;2023-12-29T12:27:09;1045.1;;;29.3;36.4
76044;BME280;64740;34.694;33.088;2023-12-29T12:31:58;1045.1;;;29.5;35.8
76044;BME280;64740;34.694;33.088;2023-12-29T12:36:43;1045.1;;;29.5;35.5
76044;BME280;64740;34.694;33.088;2023-12-29T12:41:59;1045.1;;;29.5;35.3
76044;BME280;64740;34.694;33.088;2023-12-29T12:46:44;1045.1;;;29.4;35.1
76044;BME280;64740;34.694;33.088;2023-12-29T12:52:10;1045.1;;;29.7;34.7
76044;BME280;64740;34.694;33.088;2023-12-29T12:56:46;1045.2;;;29.9;34.6
76044;BME280;64740;34.694;33.088;2023-12-29T13:02:22;1045.2;;;29.8;34.3
76044;BME280;64740;34.694;33.088;2023-12-29T13:07:00;1045.2;;;29.9;34.1
76044;BME280;64740;34.694;33.088;2023-12-29T13:11:48;1045.2;;;30.3;33.7
76044;BME280;64740;34.694;33.088;2023-12-29T13:16:40;1045.2;;;30.6;33.5
76044;BME280;64740;34.694;33.088;2023-12-29T13:22:10;1045.3;;;30.8;33.5
76044;BME280;64740;34.694;33.088;2023-12-29T13:26:40;1045.3;;;30.8;33.5
76044;BME280;64740;34.694;33.088;2023-12-29T13:31:50;1045.3;;;30.9;33.4
76044;BME280;64740;34.694;33.088;2023-12-29T13:37:23;1045.4;;;31;33.4
76044;BME280;64740;34.694;33.088;2023-12-29T13:41:58;1045.4;;;31.3;33.1
76044;BME280;64740;34.694;33.088;2023-12-29T13:46:40;1045.4;;;31.7;32.8
76044;BME280;64740;34.694;33.088;2023-12-29T13:51:40;1045.5;;;31;33.5
76044;BME280;64740;34.694;33.088;2023-12-29T13:56:50;1045.5;;;30;34.6
76044;BME280;64740;34.694;33.088;2023-12-29T14:01:40;1045.5;;;29.4;35.5
76044;BME280;64740;34.694;33.088;2023-12-29T14:06:41;1045.6;;;28.6;36.4
76044;BME280;64740;34.694;33.088;2023-12-29T14:12:12;1045.6;;;28.2;37
76044;BME280;64740;34.694;33.088;2023-12-29T14:17:02;1045.6;;;27.6;37.7
76044;BME280;64740;34.694;33.088;2023-12-29T14:22:08;1045.6;;;27.1;38.5
76044;BME280;64740;34.694;33.088;2023-12-29T14:26:58;1045.7;;;26.7;39.4
76044;BME280;64740;34.694;33.088;2023-12-29T14:31:52;1045.7;;;26.2;39.9
76044;BME280;64740;34.694;33.088;2023-12-29T14:36:46;1045.7;;;25.9;40.8
76044;BME280;64740;34.694;33.088;2023-12-29T14:42:20;1045.6;;;25.5;41.4
76044;BME280;64740;34.694;33.088;2023-12-29T14:47:06;1045.7;;;25.2;41.9
76044;BME280;64740;34.694;33.088;2023-12-29T14:51:42;1045.7;;;25;42.8
76044;BME280;64740;34.694;33.088;2023-12-29T14:57:22;1045.7;;;24.8;43.6
76044;BME280;64740;34.694;33.088;2023-12-29T15:02:14;1045.7;;;24.6;44.2
76044;BME280;64740;34.694;33.088;2023-12-29T15:07:00;1045.7;;;24.4;44.7
76044;BME280;64740;34.694;33.088;2023-12-29T15:12:22;1045.8;;;24.3;45
76044;BME280;64740;34.694;33.088;2023-12-29T15:17:16;1045.8;;;24.1;45.4
76044;BME280;64740;34.694;33.088;2023-12-29T15:22:22;1045.8;;;24;45.9
76044;BME280;64740;34.694;33.088;2023-12-29T15:27:14;1045.8;;;23.9;46
76044;BME280;64740;34.694;33.088;2023-12-29T15:32:24;1045.9;;;23.9;46.1
76044;BME280;64740;34.694;33.088;2023-12-29T15:37:02;1045.9;;;23.8;46.4
76044;BME280;64740;34.694;33.088;2023-12-29T15:41:40;1045.9;;;23.8;46.5
76044;BME280;64740;34.694;33.088;2023-12-29T15:46:52;1045.9;;;23.7;46.8
76044;BME280;64740;34.694;33.088;2023-12-29T15:52:22;1045.9;;;23.6;47.2
76044;BME280;64740;34.694;33.088;2023-12-29T15:57:02;1045.9;;;23.5;47.3
76044;BME280;64740;34.694;33.088;2023-12-29T16:02:14;1046;;;23.3;47.3
76044;BME280;64740;34.694;33.088;2023-12-29T16:07:00;1046;;;23.2;47.4
76044;BME280;64740;34.694;33.088;2023-12-29T16:11:54;1046.1;;;23.1;47.4
76044;BME280;64740;34.694;33.088;2023-12-29T16:17:22;1046.1;;;22.9;47.6
76044;BME280;64740;34.694;33.088;2023-12-29T16:22:18;1046.2;;;22.8;47.8
76044;BME280;64740;34.694;33.088;2023-12-29T16:26:40;1046.2;;;22.7;48
76044;BME280;64740;34.694;33.088;2023-12-29T16:32:10;1046.3;;;22.6;48.2
76044;BME280;64740;34.694;33.088;2023-12-29T16:37:24;1046.3;;;22.5;48.4
76044;BME280;64740;34.694;33.088;2023-12-29T16:41:40;1046.2;;;22.3;48.6
76044;BME280;64740;34.694;33.088;2023-12-29T16:46:52;1046.2;;;22.2;48.8
76044;BME280;64740;34.694;33.088;2023-12-29T16:51:56;1046.2;;;22.1;48.8
76044;BME280;64740;34.694;33.088;2023-12-29T16:56:40;1046.2;;;22.1;48.8
76044;BME280;64740;34.694;33.088;2023-12-29T17:02:10;1046.3;;;22.1;48.7
76044;BME280;64740;34.694;33.088;2023-12-29T17:06:40;1046.3;;;22;48.8
76044;BME280;64740;34.694;33.088;2023-12-29T17:11:42;1046.3;;;21.9;48.8
76044;BME280;64740;34.694;33.088;2023-12-29T17:16:46;1046.3;;;21.9;48.6
76044;BME280;64740;34.694;33.088;2023-12-29T17:22:08;1046.3;;;21.8;48.6
76044;BME280;64740;34.694;33.088;2023-12-29T17:27:20;1046.3;;;21.8;48.7
76044;BME280;64740;34.694;33.088;2023-12-29T17:31:42;1046.3;;;21.8;48.6
76044;BME280;64740;34.694;33.088;2023-12-29T17:36:56;1046.3;;;21.7;48.6
76044;BME280;64740;34.694;33.088;2023-12-29T17:41:46;1046.3;;;21.6;48.6
76044;BME280;64740;34.694;33.088;2023-12-29T17:47:08;1046.3;;;21.6;48.5
76044;BME280;64740;34.694;33.088;2023-12-29T17:51:52;1046.4;;;21.6;48.5
76044;BME280;64740;34.694;33.088;2023-12-29T17:56:48;1046.4;;;21.5;48.5
76044;BME280;64740;34.694;33.088;2023-12-29T18:02:12;1046.4;;;21.5;48.5
76044;BME280;64740;34.694;33.088;2023-12-29T18:06:42;1046.4;;;21.5;48.5
76044;BME280;64740;34.694;33.088;2023-12-29T18:12:10;1046.4;;;21.5;48.2
76044;BME280;64740;34.694;33.088;2023-12-29T18:17:00;1046.4;;;21.5;48.3
76044;BME280;64740;34.694;33.088;2023-12-29T18:21:48;1046.4;;;21.5;48.4
76044;BME280;64740;34.694;33.088;2023-12-29T18:27:10;1046.4;;;21.4;48.1
76044;BME280;64740;34.694;33.088;2023-12-29T18:31:58;1046.3;;;21.4;48.1
76044;BME280;64740;34.694;33.088;2023-12-29T18:37:10;1046.3;;;21.4;48.1
76044;BME280;64740;34.694;33.088;2023-12-29T18:41:42;1046.4;;;21.4;48.1
76044;BME280;64740;34.694;33.088;2023-12-29T18:47:10;1046.3;;;21.4;48
76044;BME280;64740;34.694;33.088;2023-12-29T18:52:14;1046.3;;;21.4;48
76044;BME280;64740;34.694;33.088;2023-12-29T18:56:40;1046.3;;;21.3;47.9
76044;BME280;64740;34.694;33.088;2023-12-29T19:01:46;1046.3;;;21.3;48
76044;BME280;64740;34.694;33.088;2023-12-29T19:07:24;1046.3;;;21.3;47.9
76044;BME280;64740;34.694;33.088;2023-12-29T19:11:46;1046.3;;;21.2;48.1
76044;BME280;64740;34.694;33.088;2023-12-29T19:16:50;1046.3;;;21.2;48.1
76044;BME280;64740;34.694;33.088;2023-12-29T19:22:02;1046.3;;;21.2;48.1
76044;BME280;64740;34.694;33.088;2023-12-29T19:27:14;1046.3;;;21.2;47.9
76044;BME280;64740;34.694;33.088;2023-12-29T19:31:48;1046.3;;;21.1;48
76044;BME280;64740;34.694;33.088;2023-12-29T19:37:12;1046.3;;;21.1;48.1
76044;BME280;64740;34.694;33.088;2023-12-29T19:42:22;1046.4;;;21.2;48
76044;BME280;64740;34.694;33.088;2023-12-29T19:47:24;1046.4;;;21.1;47.9
76044;BME280;64740;34.694;33.088;2023-12-29T19:52:22;1046.5;;;21.1;48.1
76044;BME280;64740;34.694;33.088;2023-12-29T19:57:22;1046.5;;;21;48
76044;BME280;64740;34.694;33.088;2023-12-29T20:01:48;1046.5;;;21;48.1
76044;BME280;64740;34.694;33.088;2023-12-29T20:06:56;1046.4;;;21.1;48.2
76044;BME280;64740;34.694;33.088;2023-12-29T20:11:48;1046.4;;;21.1;48.1
76044;BME280;64740;34.694;33.088;2023-12-29T20:17:24;1046.4;;;21.1;47.9
76044;BME280;64740;34.694;33.088;2023-12-29T20:22:10;1046.4;;;21;48.1
76044;BME280;64740;34.694;33.088;2023-12-29T20:27:14;1046.3;;;21;48.2
76044;BME280;64740;34.694;33.088;2023-12-29T20:31:40;1046.3;;;21;48
76044;BME280;64740;34.694;33.088;2023-12-29T20:36:46;1046.3;;;20.9;48.1
76044;BME280;64740;34.694;33.088;2023-12-29T20:42:24;1046.3;;;20.9;48.1
76044;BME280;64740;34.694;33.088;2023-12-29T20:46:58;1046.3;;;20.9;48
76044;BME280;64740;34.694;33.088;2023-12-29T20:52:10;1046.3;;;20.9;47.9
76044;BME280;64740;34.694;33.088;2023-12-29T20:56:42;1046.3;;;20.9;47.9
76044;BME280;64740;34.694;33.088;2023-12-29T21:02:24;1046.3;;;20.9;47.9
76044;BME280;64740;34.694;33.088;2023-12-29T21:06:52;1046.3;;;20.9;47.9
76044;BME280;64740;34.694;33.088;2023-12-29T21:11:46;1046.3;;;20.9;47.8
76044;BME280;64740;34.694;33.088;2023-12-29T21:17:08;1046.2;;;20.8;47.8
76044;BME280;64740;34.694;33.088;2023-12-29T21:21:58;1046.2;;;20.8;47.7
76044;BME280;64740;34.694;33.088;2023-12-29T21:26:54;1046.2;;;20.8;47.8
76044;BME280;64740;34.694;33.088;2023-12-29T21:31:46;1046.2;;;20.8;47.7
76044;BME280;64740;34.694;33.088;2023-12-29T21:37:24;1046.2;;;20.8;47.7
76044;BME280;64740;34.694;33.088;2023-12-29T21:41:40;1046.2;;;20.8;47.8
76044;BME280;64740;34.694;33.088;2023-12-29T21:46:40;1046.2;;;20.8;47.6
76044;BME280;64740;34.694;33.088;2023-12-29T21:52:24;1046.1;;;20.8;47.7
76044;BME280;64740;34.694;33.088;2023-12-29T21:56:42;1046.1;;;20.8;47.6
76044;BME280;64740;34.694;33.088;2023-12-29T22:01:40;1046;;;20.8;47.5
76044;BME280;64740;34.694;33.088;2023-12-29T22:06:48;1046;;;20.8;47.5
76044;BME280;64740;34.694;33.088;2023-12-29T22:12:02;1045.9;;;20.7;47.5
76044;BME280;64740;34.694;33.088;2023-12-29T22:16:58;1045.9;;;20.7;47.3
76044;BME280;64740;34.694;33.088;2023-12-29T22:21:58;1045.9;;;20.7;47.5
76044;BME280;64740;34.694;33.088;2023-12-29T22:27:24;1045.8;;;20.7;47.3
76044;BME280;64740;34.694;33.088;2023-12-29T22:32:08;1045.8;;;20.7;47.3
76044;BME280;64740;34.694;33.088;2023-12-29T22:36:54;1045.8;;;20.7;47.4
76044;BME280;64740;34.694;33.088;2023-12-29T22:41:58;1045.8;;;20.6;47.4
76044;BME280;64740;34.694;33.088;2023-12-29T22:46:52;1045.8;;;20.6;47.3
76044;BME280;64740;34.694;33.088;2023-12-29T22:51:40;1045.8;;;20.6;47.2
76044;BME280;64740;34.694;33.088;2023-12-29T22:57:14;1045.7;;;20.6;47.2
76044;BME280;64740;34.694;33.088;2023-12-29T23:02:12;1045.7;;;20.6;47.2
76044;BME280;64740;34.694;33.088;2023-12-29T23:06:50;1045.7;;;20.6;47.2
76044;BME280;64740;34.694;33.088;2023-12-29T23:11:54;1045.6;;;20.5;47.1
76044;BME280;64740;34.694;33.088;2023-12-29T23:16:52;1045.6;;;20.5;47.1
76044;BME280;64740;34.694;33.088;2023-12-29T23:21:46;1045.6;;;20.5;46.9
76044;BME280;64740;34.694;33.088;2023-12-29T23:26:58;1045.6;;;20.4;47.1
76044;BME280;64740;34.694;33.088;2023-12-29T23:31:58;1045.6;;;20.4;47.2
76044;BME280;64740;34.694;33.088;2023-12-29T23:36:56;1045.6;;;20.4;47
76044;BME280;64740;34.694;33.088;2023-12-29T23:42:08;1045.6;;;20.4;47.3
76044;BME280;64740;34.694;33.088;2023-12-29T23:47:20;1045.6;;;20.3;47.2
76044;BME280;64740;34.694;33.088;2023-12-29T23:51:54;1045.6;;;20.3;47.3
76044;BME280;64740;34.694;33.088;2023-12-29T23:56:40;1045.6;;;20.3;47.5
